createdAt,value
2023-01-05T00:02:17.475Z,8.87
2023-01-05T00:04:48.826Z,9.07
2023-01-05T00:07:15.651Z,9.09
2023-01-05T00:09:42.441Z,9.11
2023-01-05T00:12:28.412Z,9.08
2023-01-05T00:15:13.772Z,9.09
2023-01-05T00:17:59.102Z,9.04
2023-01-05T00:20:44.151Z,9.04
2023-01-05T00:23:10.888Z,9.04
2023-01-05T00:25:38.401Z,9.03
2023-01-05T00:28:05.616Z,9.04
2023-01-05T00:30:34.548Z,9.06
2023-01-05T00:33:01.326Z,9.11
2023-01-05T00:35:29.310Z,9.12
2023-01-05T00:37:56.119Z,9.18
2023-01-05T00:40:23.045Z,9.24
2023-01-05T00:42:49.881Z,9.35
2023-01-05T00:45:17.603Z,9.47
2023-01-05T00:47:44.830Z,9.59
2023-01-05T00:50:13.363Z,9.72
2023-01-05T00:52:40.367Z,9.83
2023-01-05T00:55:07.363Z,9.90
2023-01-05T00:57:34.185Z,9.79
2023-01-05T01:00:03.922Z,10.03
2023-01-05T01:02:30.912Z,10.08
2023-01-05T01:04:57.709Z,10.13
2023-01-05T01:07:24.562Z,10.18
2023-01-05T01:09:51.265Z,10.22
2023-01-05T01:12:18.017Z,10.24
2023-01-05T01:14:47.084Z,10.26
2023-01-05T01:17:15.836Z,10.28
2023-01-05T01:19:42.545Z,10.30
2023-01-05T01:22:09.377Z,10.31
2023-01-05T01:24:36.093Z,10.32
2023-01-05T01:27:03.792Z,10.35
2023-01-05T01:29:30.685Z,10.35
2023-01-05T01:31:57.622Z,10.39
2023-01-05T01:34:24.503Z,10.39
2023-01-05T01:36:51.300Z,10.42
2023-01-05T01:39:22.437Z,10.43
2023-01-05T01:41:54.325Z,10.45
2023-01-05T01:44:39.726Z,10.48
2023-01-05T01:47:06.569Z,10.49
2023-01-05T01:49:33.630Z,10.50
2023-01-05T01:52:06.065Z,10.53
2023-01-05T01:54:32.901Z,10.56
2023-01-05T01:56:59.829Z,10.58
2023-01-05T01:59:27.233Z,10.59
2023-01-05T02:01:58.334Z,10.60
2023-01-05T02:04:26.342Z,10.63
2023-01-05T02:06:53.551Z,10.65
2023-01-05T02:09:20.485Z,10.65
2023-01-05T02:11:47.190Z,10.66
2023-01-05T02:14:16.917Z,10.68
2023-01-05T02:16:52.535Z,10.70
2023-01-05T02:19:19.370Z,10.71
2023-01-05T02:22:12.751Z,10.72
2023-01-05T02:24:39.549Z,10.74
2023-01-05T02:27:12.130Z,10.75
2023-01-05T02:30:02.711Z,10.77
2023-01-05T02:32:36.770Z,10.78
2023-01-05T02:35:23.750Z,10.81
2023-01-05T02:38:09.905Z,10.83
2023-01-05T02:40:42.470Z,10.84
2023-01-05T02:43:10.961Z,10.84
2023-01-05T02:45:37.831Z,10.86
2023-01-05T02:48:05.021Z,10.88
2023-01-05T02:50:38.683Z,10.90
2023-01-05T02:53:32.427Z,10.90
2023-01-05T02:56:02.205Z,10.93
2023-01-05T02:58:42.640Z,10.93
2023-01-05T03:01:14.847Z,10.96
2023-01-05T03:03:48.975Z,10.98
2023-01-05T03:06:31.622Z,10.96
2023-01-05T03:09:00.391Z,10.97
2023-01-05T03:11:58.107Z,10.80
2023-01-05T03:14:25.549Z,10.95
2023-01-05T03:16:55.487Z,10.98
2023-01-05T03:19:41.854Z,11.00
2023-01-05T03:22:39.172Z,10.99
2023-01-05T03:25:28.777Z,10.98
2023-01-05T03:28:16.655Z,10.97
2023-01-05T03:31:14.352Z,10.96
2023-01-05T03:34:03.900Z,10.96
2023-01-05T03:36:32.318Z,10.95
2023-01-05T03:39:01.840Z,10.95
2023-01-05T03:41:31.309Z,10.93
2023-01-05T03:43:58.695Z,10.93
2023-01-05T03:46:25.588Z,10.93
2023-01-05T03:48:53.149Z,10.93
2023-01-05T03:51:20.854Z,10.95
2023-01-05T03:53:47.541Z,10.94
2023-01-05T03:56:14.617Z,10.93
2023-01-05T03:58:41.567Z,10.93
2023-01-05T04:01:08.733Z,10.95
2023-01-05T04:03:37.526Z,10.95
2023-01-05T04:06:07.074Z,10.96
2023-01-05T04:08:35.260Z,10.95
2023-01-05T04:11:16.545Z,10.98
2023-01-05T04:13:48.328Z,11.00
2023-01-05T04:16:16.055Z,11.03
2023-01-05T04:18:43.280Z,11.03
2023-01-05T04:21:10.434Z,11.03
2023-01-05T04:23:38.241Z,11.02
2023-01-05T04:26:05.805Z,11.02
2023-01-05T04:28:33.712Z,11.02
2023-01-05T04:31:01.536Z,10.99
2023-01-05T04:33:30.110Z,10.98
2023-01-05T04:35:57.455Z,10.96
2023-01-05T04:38:27.607Z,10.92
2023-01-05T04:40:55.403Z,10.93
2023-01-05T04:43:24.575Z,10.94
2023-01-05T04:45:51.342Z,10.86
2023-01-05T04:48:19.006Z,10.95
2023-01-05T04:50:45.876Z,10.95
2023-01-05T04:53:12.647Z,10.96
2023-01-05T04:55:45.118Z,10.98
2023-01-05T04:58:12.329Z,10.98
2023-01-05T05:00:40.526Z,10.97
2023-01-05T05:03:08.003Z,10.97
2023-01-05T05:05:35.421Z,10.95
2023-01-05T05:08:02.912Z,10.94
2023-01-05T05:10:30.293Z,10.93
2023-01-05T05:12:57.140Z,10.94
2023-01-05T05:15:24.017Z,10.95
2023-01-05T05:17:50.928Z,10.95
2023-01-05T05:20:18.131Z,10.96
2023-01-05T05:22:44.904Z,10.96
2023-01-05T05:25:15.092Z,10.97
2023-01-05T05:27:45.255Z,10.97
2023-01-05T05:30:12.166Z,10.98
2023-01-05T05:32:43.953Z,10.96
2023-01-05T05:35:11.513Z,10.95
2023-01-05T05:37:38.264Z,10.94
2023-01-05T05:40:05.441Z,10.94
2023-01-05T05:42:32.103Z,10.94
2023-01-05T05:44:58.975Z,10.95
2023-01-05T05:47:25.819Z,10.92
2023-01-05T05:49:52.621Z,10.93
2023-01-05T05:52:19.444Z,10.93
2023-01-05T05:54:46.165Z,10.92
2023-01-05T05:57:13.071Z,10.93
2023-01-05T05:59:39.835Z,10.91
2023-01-05T06:02:06.618Z,10.91
2023-01-05T06:04:33.468Z,10.91
2023-01-05T06:07:00.226Z,10.92
2023-01-05T06:09:27.377Z,10.94
2023-01-05T06:11:54.321Z,10.95
2023-01-05T06:14:21.197Z,10.95
2023-01-05T06:16:48.052Z,10.94
2023-01-05T06:19:14.837Z,10.94
2023-01-05T06:21:41.580Z,10.95
2023-01-05T06:24:08.475Z,10.93
2023-01-05T06:26:35.225Z,10.93
2023-01-05T06:29:02.037Z,10.93
2023-01-05T06:31:28.882Z,10.94
2023-01-05T06:33:55.733Z,10.93
2023-01-05T06:36:22.462Z,10.93
2023-01-05T06:38:49.291Z,10.93
2023-01-05T06:41:15.994Z,10.91
2023-01-05T06:43:42.777Z,10.91
2023-01-05T06:46:09.507Z,10.91
2023-01-05T06:48:36.455Z,10.90
2023-01-05T06:51:03.327Z,10.89
2023-01-05T06:53:30.374Z,10.91
2023-01-05T06:55:57.093Z,10.89
2023-01-05T06:58:23.863Z,10.88
2023-01-05T07:00:50.732Z,10.88
2023-01-05T07:03:18.025Z,10.87
2023-01-05T07:05:44.871Z,10.88
2023-01-05T07:08:11.675Z,10.88
2023-01-05T07:10:38.464Z,10.88
2023-01-05T07:13:05.345Z,10.88
2023-01-05T07:15:32.086Z,10.89
2023-01-05T07:17:58.945Z,10.90
2023-01-05T07:20:25.835Z,10.93
2023-01-05T07:22:52.704Z,10.93
2023-01-05T07:25:19.427Z,10.94
2023-01-05T07:27:50.560Z,10.95
2023-01-05T07:30:17.446Z,10.93
2023-01-05T07:32:44.189Z,10.95
2023-01-05T07:35:11.066Z,10.96
2023-01-05T07:37:37.869Z,10.98
2023-01-05T07:40:05.078Z,11.01
2023-01-05T07:42:32.052Z,11.04
2023-01-05T07:44:58.923Z,11.06
2023-01-05T07:47:25.761Z,11.08
2023-01-05T07:49:52.659Z,11.12
2023-01-05T07:52:19.378Z,11.14
2023-01-05T07:54:46.323Z,11.17
2023-01-05T07:57:13.125Z,11.18
2023-01-05T07:59:39.932Z,11.22
2023-01-05T08:02:06.879Z,11.26
2023-01-05T08:04:34.007Z,11.29
2023-01-05T08:07:02.100Z,11.32
2023-01-05T08:09:47.330Z,11.36
2023-01-05T08:12:14.179Z,11.39
2023-01-05T08:14:41.375Z,11.41
2023-01-05T08:17:09.022Z,11.47
2023-01-05T08:19:35.721Z,11.51
2023-01-05T08:22:02.523Z,11.54
2023-01-05T08:24:29.387Z,11.55
2023-01-05T08:26:56.287Z,11.54
2023-01-05T08:29:23.085Z,11.55
2023-01-05T08:31:50.155Z,11.56
2023-01-05T08:34:16.993Z,11.61
2023-01-05T08:36:43.929Z,11.63
2023-01-05T08:39:11.205Z,11.66
2023-01-05T08:41:39.200Z,11.66
2023-01-05T08:44:07.019Z,11.66
2023-01-05T08:46:34.921Z,11.68
2023-01-05T08:49:02.992Z,11.67
2023-01-05T08:51:30.220Z,11.70
2023-01-05T08:53:57.412Z,11.69
2023-01-05T08:56:30.540Z,11.68
2023-01-05T08:59:00.280Z,11.72
2023-01-05T09:01:27.383Z,11.79
2023-01-05T09:03:54.324Z,11.84
2023-01-05T09:06:21.316Z,11.87
2023-01-05T09:08:48.667Z,11.93
2023-01-05T09:11:17.017Z,11.94
2023-01-05T09:13:48.242Z,11.95
2023-01-05T09:16:24.906Z,11.96
2023-01-05T09:19:07.131Z,11.96
2023-01-05T09:21:34.264Z,11.93
2023-01-05T09:24:01.093Z,11.92
2023-01-05T09:26:27.918Z,11.93
2023-01-05T09:28:54.997Z,11.99
2023-01-05T09:31:22.661Z,12.00
2023-01-05T09:33:49.811Z,12.01
2023-01-05T09:36:17.891Z,12.01
2023-01-05T09:38:54.428Z,12.00
2023-01-05T09:41:35.641Z,12.01
2023-01-05T09:44:05.425Z,12.01
2023-01-05T09:46:37.266Z,12.02
2023-01-05T09:49:06.967Z,12.05
2023-01-05T09:51:34.331Z,12.02
2023-01-05T09:54:01.630Z,12.05
2023-01-05T09:59:20.279Z,12.03
2023-01-05T10:01:48.551Z,12.00
2023-01-05T10:04:17.189Z,11.98
2023-01-05T10:06:46.357Z,11.97
2023-01-05T10:09:17.194Z,12.00
2023-01-05T10:12:05.420Z,12.03
2023-01-05T10:14:40.724Z,12.02
2023-01-05T10:17:39.774Z,12.02
2023-01-05T10:20:00.511Z,12.02
2023-01-05T10:22:45.921Z,12.04
2023-01-05T10:25:26.567Z,12.05
2023-01-05T10:27:56.854Z,12.05
2023-01-05T10:30:26.038Z,12.08
2023-01-05T10:33:22.114Z,12.07
2023-01-05T10:36:10.345Z,12.04
2023-01-05T10:39:17.631Z,12.05
2023-01-05T10:41:44.465Z,12.03
2023-01-05T10:44:31.484Z,12.03
2023-01-05T10:46:59.037Z,12.02
2023-01-05T10:49:27.934Z,12.07
2023-01-05T10:51:58.282Z,12.12
2023-01-05T10:54:45.437Z,12.14
2023-01-05T10:57:35.335Z,12.20
2023-01-05T11:00:17.103Z,12.19
2023-01-05T11:03:01.343Z,12.24
2023-01-05T11:05:38.704Z,12.24
2023-01-05T11:08:17.040Z,12.20
2023-01-05T11:11:03.244Z,12.19
2023-01-05T11:13:34.673Z,12.19
2023-01-05T11:16:21.830Z,12.20
2023-01-05T11:18:49.142Z,12.19
2023-01-05T11:21:17.762Z,12.21
2023-01-05T11:23:46.195Z,12.23
2023-01-05T11:26:13.133Z,12.27
2023-01-05T11:28:48.934Z,12.29
2023-01-05T11:31:15.823Z,12.28
2023-01-05T11:33:44.690Z,12.27
2023-01-05T11:36:14.796Z,12.25
2023-01-05T11:38:41.760Z,12.24
2023-01-05T11:41:11.497Z,12.21
2023-01-05T11:43:40.298Z,12.21
2023-01-05T11:46:07.337Z,12.18
2023-01-05T11:48:35.499Z,12.20
2023-01-05T11:51:03.048Z,12.19
2023-01-05T11:53:38.159Z,12.20
2023-01-05T11:56:08.293Z,12.19
2023-01-05T11:58:42.975Z,12.22
2023-01-05T12:01:28.403Z,12.23
2023-01-05T12:04:04.477Z,12.23
2023-01-05T12:06:34.360Z,12.26
2023-01-05T12:09:04.030Z,12.27
2023-01-05T12:11:36.469Z,12.28
2023-01-05T12:14:18.306Z,12.28
2023-01-05T12:16:47.084Z,12.30
2023-01-05T12:19:40.029Z,12.27
2023-01-05T12:22:25.437Z,12.23
2023-01-05T12:24:52.254Z,12.23
2023-01-05T12:27:28.217Z,12.28
2023-01-05T12:35:58.262Z,12.27
2023-01-05T12:38:37.656Z,12.27
2023-01-05T12:41:04.485Z,12.29
2023-01-05T12:43:40.666Z,12.30
2023-01-05T12:46:18.015Z,12.30
2023-01-05T12:48:57.883Z,12.27
2023-01-05T12:51:24.741Z,12.30
2023-01-05T12:53:57.152Z,12.32
2023-01-05T12:56:43.414Z,12.34
2023-01-05T12:59:30.720Z,12.41
2023-01-05T13:02:16.201Z,12.43
2023-01-05T13:05:02.735Z,12.39
2023-01-05T13:07:43.605Z,12.40
2023-01-05T13:10:37.030Z,12.45
2023-01-05T13:13:05.893Z,12.50
2023-01-05T13:15:38.967Z,12.53
2023-01-05T13:18:12.104Z,12.56
2023-01-05T13:20:54.335Z,12.60
2023-01-05T13:23:23.633Z,12.63
2023-01-05T13:25:54.765Z,12.81
2023-01-05T13:28:24.586Z,12.81
2023-01-05T13:31:06.789Z,12.83
2023-01-05T13:33:52.081Z,12.87
2023-01-05T13:36:36.371Z,12.95
2023-01-05T13:39:03.279Z,13.06
2023-01-05T13:41:44.918Z,13.14
2023-01-05T13:44:21.357Z,13.32
2023-01-05T13:47:06.984Z,13.43
2023-01-05T13:49:57.022Z,13.52
2023-01-05T13:52:26.899Z,13.38
2023-01-05T13:55:01.913Z,13.40
2023-01-05T13:57:40.062Z,13.43
2023-01-05T14:00:21.976Z,13.43
2023-01-05T14:03:15.316Z,13.45
2023-01-05T14:05:42.308Z,13.50
2023-01-05T14:08:20.272Z,13.83
2023-01-05T14:11:07.221Z,13.81
2023-01-05T14:13:44.001Z,13.61
2023-01-05T14:16:29.547Z,13.56
2023-01-05T14:19:10.486Z,13.51
2023-01-05T14:22:00.389Z,13.37
2023-01-05T14:24:27.204Z,13.14
2023-01-05T14:27:01.907Z,13.07
2023-01-05T14:30:00.987Z,13.00
2023-01-05T14:32:32.840Z,12.85
2023-01-05T14:35:19.696Z,12.79
2023-01-05T14:37:55.934Z,12.67
2023-01-05T14:40:31.597Z,12.57
2023-01-05T14:42:59.537Z,12.48
2023-01-05T14:45:30.712Z,12.37
2023-01-05T14:47:59.019Z,12.33
2023-01-05T14:50:27.265Z,12.26
2023-01-05T14:52:55.890Z,12.18
2023-01-05T14:55:45.972Z,12.13
2023-01-05T14:58:14.630Z,12.06
2023-01-05T15:03:23.120Z,11.92
2023-01-05T15:05:54.815Z,11.87
2023-01-05T15:08:21.752Z,11.82
2023-01-05T15:10:58.379Z,11.78
2023-01-05T15:13:31.399Z,11.80
2023-01-05T15:16:07.570Z,11.74
2023-01-05T15:18:37.572Z,11.65
2023-01-05T15:21:16.304Z,11.57
2023-01-05T15:23:49.782Z,11.50
2023-01-05T15:26:36.941Z,11.45
2023-01-05T15:29:24.197Z,11.40
2023-01-05T15:31:56.801Z,11.37
2023-01-05T15:34:44.864Z,11.33
2023-01-05T15:37:34.926Z,11.31
2023-01-05T15:40:04.377Z,11.27
2023-01-05T15:42:31.247Z,11.23
2023-01-05T15:44:58.407Z,11.18
2023-01-05T15:47:27.396Z,11.13
2023-01-05T15:50:02.145Z,11.07
2023-01-05T15:52:36.800Z,11.02
2023-01-05T15:55:17.314Z,10.93
2023-01-05T15:57:52.511Z,10.87
2023-01-05T16:00:22.784Z,10.81
2023-01-05T16:02:49.886Z,10.76
2023-01-05T16:05:21.107Z,10.72
2023-01-05T16:08:00.020Z,10.66
2023-01-05T16:10:35.995Z,10.61
2023-01-05T16:13:15.015Z,10.56
2023-01-05T16:15:43.192Z,10.48
2023-01-05T16:18:14.620Z,10.43
2023-01-05T16:20:46.565Z,10.37
2023-01-05T16:23:17.242Z,10.32
2023-01-05T16:25:49.342Z,10.29
2023-01-05T16:28:17.704Z,10.25
2023-01-05T16:30:45.737Z,10.21
2023-01-05T16:33:36.056Z,10.19
2023-01-05T16:36:07.221Z,10.15
2023-01-05T16:38:34.444Z,10.11
2023-01-05T16:41:10.245Z,10.06
2023-01-05T16:43:38.386Z,10.04
2023-01-05T16:46:20.511Z,10.03
2023-01-05T16:48:48.062Z,10.00
2023-01-05T16:51:16.699Z,9.98
2023-01-05T16:53:45.460Z,9.96
2023-01-05T16:56:41.834Z,9.93
2023-01-05T16:59:37.847Z,9.89
2023-01-05T17:02:24.705Z,9.83
2023-01-05T17:04:51.799Z,9.79
2023-01-05T17:07:20.038Z,9.73
2023-01-05T17:09:47.157Z,9.69
2023-01-05T17:12:14.536Z,9.64
2023-01-05T17:14:43.113Z,9.61
2023-01-05T17:17:13.500Z,9.58
2023-01-05T17:19:40.424Z,9.54
2023-01-05T17:22:10.375Z,9.50
2023-01-05T17:24:39.090Z,9.46
2023-01-05T17:27:06.046Z,9.43
2023-01-05T17:29:33.355Z,9.37
2023-01-05T17:32:00.306Z,9.29
2023-01-05T17:34:27.321Z,9.24
2023-01-05T17:36:55.464Z,9.18
2023-01-05T17:39:22.775Z,9.12
2023-01-05T17:41:49.611Z,9.07
2023-01-05T17:44:16.627Z,9.03
2023-01-05T17:46:44.394Z,9.00
2023-01-05T17:49:19.543Z,8.95
2023-01-05T17:51:48.619Z,8.91
2023-01-05T17:54:15.535Z,8.86
2023-01-05T17:56:42.669Z,8.83
2023-01-05T17:59:09.411Z,8.80
2023-01-05T18:01:36.552Z,8.74
2023-01-05T18:04:05.279Z,8.68
2023-01-05T18:06:32.122Z,8.63
2023-01-05T18:08:58.947Z,8.56
2023-01-05T18:11:26.054Z,8.48
2023-01-05T18:13:52.842Z,8.39
2023-01-05T18:16:19.635Z,8.31
2023-01-05T18:18:46.691Z,8.21
2023-01-05T18:21:13.532Z,8.09
2023-01-05T18:23:40.276Z,8.00
2023-01-05T18:26:08.326Z,7.91
2023-01-05T18:28:35.725Z,7.82
2023-01-05T18:31:08.993Z,7.73
2023-01-05T18:33:35.984Z,7.67
2023-01-05T18:38:39.907Z,7.51
2023-01-05T18:41:07.237Z,7.42
2023-01-05T18:43:34.074Z,7.36
2023-01-05T18:46:01.499Z,7.32
2023-01-05T18:48:28.446Z,7.27
2023-01-05T18:50:55.286Z,7.22
2023-01-05T18:53:22.654Z,7.20
2023-01-05T18:55:49.797Z,7.16
2023-01-05T18:58:16.869Z,7.12
2023-01-05T19:00:45.145Z,7.07
2023-01-05T19:03:11.962Z,7.05
2023-01-05T19:05:41.012Z,7.03
2023-01-05T19:08:08.953Z,7.00
2023-01-05T19:10:35.961Z,6.97
2023-01-05T19:13:03.006Z,6.95
2023-01-05T19:15:29.847Z,6.90
2023-01-05T19:17:57.395Z,6.85
2023-01-05T19:20:24.173Z,6.81
2023-01-05T19:22:51.956Z,6.79
2023-01-05T19:25:19.354Z,6.80
2023-01-05T19:27:46.360Z,6.77
2023-01-05T19:30:15.442Z,6.75
2023-01-05T19:32:42.215Z,6.73
2023-01-05T19:35:09.302Z,6.72
2023-01-05T19:37:36.275Z,6.71
2023-01-05T19:40:03.168Z,6.69
2023-01-05T19:42:31.428Z,6.26
2023-01-05T19:44:58.355Z,6.63
2023-01-05T19:47:25.345Z,6.62
2023-01-05T19:49:53.360Z,6.62
2023-01-05T19:52:20.443Z,6.59
2023-01-05T19:54:47.672Z,6.57
2023-01-05T19:57:14.478Z,6.59
2023-01-05T19:59:41.292Z,6.59
2023-01-05T20:02:08.142Z,6.58
2023-01-05T20:04:35.016Z,6.57
2023-01-05T20:07:04.019Z,6.58
2023-01-05T20:09:31.211Z,6.59
2023-01-05T20:12:09.316Z,6.58
2023-01-05T20:14:41.607Z,6.57
2023-01-05T20:17:10.803Z,6.55
2023-01-05T20:19:39.099Z,6.54
2023-01-05T20:22:07.652Z,6.52
2023-01-05T20:24:36.899Z,6.49
2023-01-05T20:27:06.516Z,6.46
2023-01-05T20:29:33.642Z,6.43
2023-01-05T20:32:03.372Z,6.38
2023-01-05T20:34:32.390Z,6.35
2023-01-05T20:36:59.698Z,6.33
2023-01-05T20:39:26.791Z,6.33
2023-01-05T20:41:54.159Z,6.33
2023-01-05T20:44:22.524Z,6.32
2023-01-05T20:46:50.330Z,6.30
2023-01-05T20:49:17.465Z,6.26
2023-01-05T20:51:44.351Z,6.25
2023-01-05T20:54:11.959Z,6.24
2023-01-05T20:56:40.196Z,6.23
2023-01-05T20:59:09.134Z,6.23
2023-01-05T21:01:36.290Z,6.19
2023-01-05T21:04:04.126Z,6.18
2023-01-05T21:06:31.054Z,6.17
2023-01-05T21:08:58.099Z,6.12
2023-01-05T21:11:26.175Z,6.08
2023-01-05T21:13:54.674Z,6.04
2023-01-05T21:16:26.006Z,6.01
2023-01-05T21:18:53.320Z,5.95
2023-01-05T21:21:21.251Z,5.90
2023-01-05T21:23:49.961Z,5.86
2023-01-05T21:26:17.315Z,5.85
2023-01-05T21:28:45.138Z,5.84
2023-01-05T21:31:13.648Z,5.79
2023-01-05T21:33:41.068Z,5.76
2023-01-05T21:36:08.758Z,5.73
2023-01-05T21:38:59.888Z,5.70
2023-01-05T21:41:42.562Z,5.65
2023-01-05T21:44:11.132Z,5.65
2023-01-05T21:46:38.726Z,5.64
2023-01-05T21:49:06.440Z,5.60
2023-01-05T21:51:51.868Z,5.57
2023-01-05T21:54:38.030Z,5.58
2023-01-05T21:57:05.159Z,5.57
2023-01-05T21:59:32.229Z,5.56
2023-01-05T22:01:59.174Z,5.54
2023-01-05T22:04:25.880Z,5.54
2023-01-05T22:06:53.004Z,5.53
2023-01-05T22:09:19.916Z,5.53
2023-01-05T22:11:47.054Z,5.52
2023-01-05T22:14:14.068Z,5.53
2023-01-05T22:16:40.927Z,5.53
2023-01-05T22:19:07.721Z,5.56
2023-01-05T22:21:34.499Z,5.58
2023-01-05T22:24:01.227Z,5.61
2023-01-05T22:26:28.163Z,5.61
2023-01-05T22:28:54.890Z,5.60
2023-01-05T22:31:23.382Z,5.59
2023-01-05T22:33:51.397Z,5.57
2023-01-05T22:36:19.248Z,5.56
2023-01-05T22:38:47.173Z,5.56
2023-01-05T22:41:15.115Z,5.55
2023-01-05T22:43:42.762Z,5.54
2023-01-05T22:46:14.163Z,5.54
2023-01-05T22:48:42.450Z,5.55
2023-01-05T22:51:09.149Z,5.54
2023-01-05T22:53:36.039Z,5.54
2023-01-05T22:56:02.745Z,5.53
2023-01-05T22:58:29.484Z,5.51
2023-01-05T23:00:56.413Z,5.49
2023-01-05T23:03:23.167Z,5.47
2023-01-05T23:05:49.821Z,5.43
2023-01-05T23:08:16.676Z,5.39
2023-01-05T23:10:43.448Z,5.38
2023-01-05T23:13:10.192Z,5.36
2023-01-05T23:15:36.951Z,5.34
2023-01-05T23:18:03.930Z,5.35
2023-01-05T23:20:30.672Z,5.40
2023-01-05T23:22:57.791Z,5.43
2023-01-05T23:25:24.423Z,5.48
2023-01-05T23:27:52.723Z,5.53
2023-01-05T23:30:19.483Z,5.56
2023-01-05T23:32:46.251Z,5.57
2023-01-05T23:35:12.948Z,5.59
2023-01-05T23:37:39.827Z,5.61
2023-01-05T23:40:06.885Z,5.65
2023-01-05T23:42:46.676Z,5.68
2023-01-05T23:45:14.332Z,5.72
2023-01-05T23:47:41.049Z,5.76
2023-01-05T23:50:08.098Z,5.79
2023-01-05T23:52:34.898Z,5.82
2023-01-05T23:55:01.702Z,5.83
2023-01-05T23:57:29.759Z,5.81
2023-01-05T23:59:56.632Z,5.79
